Palava, Texas
Current Conditions -  °F | °C
As of 12:55 PM on Friday 24 Oct 2014 (Local Time) from KSWW Reporting Station
Clear Clear  
Wind Chill: 79°   Ceiling: Unl
Heat Index: 80°   Visibility: 10mi
Dew Point: 58°   Wind: 12mph
Humidity: 48%   Direction: 210°SSW
Pressure: 30.21"   Gusts: NA
Location:  32.5104°N, 100.305°W
Report Text: KSWW 241755Z AUTO 21010KT 10SM CLR 26/14 A3021 RMK AO2 T02620143 10262 20165
Loading
Personal Weather Stations






























Interactive Weather Map New forecast layout! Learn more

10-Day Weather Forecast

Advertisements
Track Severe Weather on mobile